Time;durP1;ratioP1;P1;durP2;ratioP2;P2;SDS_P1;SDS_P2;PMS_P1;PMS_P2;Temp;Humidity;BMP_temperature;BMP_pressure;BME280_temperature;BME280_humidity;BME280_pressure;Samples;Min_cycle;Max_cycle;Signal;HPM_P1;HPM_P2
2022/07/13 00:01:42;;;;;;;5.80;4.50;;;;;;;8.93;96.42;97664.66;110414;1246;67799;-67
2022/07/13 00:04:12;;;;;;;6.70;5.50;;;;;;;8.92;97.00;97666.80;110350;1247;69422;-67
2022/07/13 00:06:42;;;;;;;6.00;5.30;;;;;;;8.92;96.86;97666.46;110405;1247;59024;-68
2022/07/13 00:09:12;;;;;;;;;;;;;;;8.92;96.04;97667.67;110253;1247;58948;-69
2022/07/13 00:11:43;;;;;;;6.90;5.00;;;;;;;8.92;94.47;97667.90;110212;1247;70586;-68
2022/07/13 00:14:12;;;;;;;;;;;;;;;8.91;91.00;97659.02;110458;1247;68584;-67
2022/07/13 00:16:41;;;;;;;6.00;4.70;;;;;;;8.89;90.29;97665.63;110162;1247;68360;-67
2022/07/13 00:19:11;;;;;;;5.30;4.40;;;;;;;8.86;89.99;97665.47;110227;1247;59291;-66
2022/07/13 00:21:41;;;;;;;;;;;;;;;8.82;91.00;97664.46;110331;1247;58812;-68
2022/07/13 00:24:14;;;;;;;4.40;3.30;;;;;;;8.79;92.76;97664.88;110194;1247;70713;-69
2022/07/13 00:26:46;;;;;;;7.40;4.20;;;;;;;8.76;94.19;97661.42;110499;1245;68381;-68
2022/07/13 00:29:16;;;;;;;;;;;;;;;8.72;94.56;97663.23;110262;1247;69229;-68
2022/07/13 00:31:49;;;;;;;4.40;4.00;;;;;;;8.67;94.44;97664.52;110208;1245;58916;-67
2022/07/13 00:34:20;;;;;;;6.50;4.70;;;;;;;8.66;95.19;97664.41;110408;1247;58948;-67
2022/07/13 00:36:50;;;;;;;5.10;4.30;;;;;;;8.66;95.52;97664.08;110101;1247;70645;-69
2022/07/13 00:39:21;;;;;;;5.90;5.20;;;;;;;8.67;94.78;97661.55;110272;1247;68044;-68
2022/07/13 00:41:50;;;;;;;4.00;3.50;;;;;;;8.70;94.57;97657.44;110084;1247;69441;-70
2022/07/13 00:44:20;;;;;;;4.40;3.70;;;;;;;8.72;94.28;97652.27;110157;1247;58889;-67
2022/07/13 00:46:55;;;;;;;3.40;2.80;;;;;;;8.71;93.34;97653.02;110104;1248;58906;-68
2022/07/13 00:49:25;;;;;;;3.60;3.00;;;;;;;8.68;93.75;97658.90;110160;1247;69849;-67
2022/07/13 00:51:56;;;;;;;4.30;3.80;;;;;;;8.63;93.98;97656.77;110197;1246;68885;-68
2022/07/13 00:54:30;;;;;;;3.90;3.30;;;;;;;8.60;94.50;97657.70;110243;1246;67911;-67
2022/07/13 00:57:02;;;;;;;5.10;3.70;;;;;;;8.56;94.65;97651.16;110304;1247;58837;-68
2022/07/13 00:59:32;;;;;;;4.90;4.20;;;;;;;8.54;95.57;97658.02;110432;1247;58899;-70
2022/07/13 01:02:02;;;;;;;5.40;4.10;;;;;;;8.54;96.00;97656.64;110089;1247;70619;-67
2022/07/13 01:04:35;;;;;;;4.50;4.00;;;;;;;8.56;96.85;97661.77;110077;1247;68422;-66
2022/07/13 01:07:06;;;;;;;4.40;3.90;;;;;;;8.57;96.54;97654.73;110221;1247;68296;-67
2022/07/13 01:09:36;;;;;;;4.60;3.80;;;;;;;8.59;96.98;97655.80;110426;1247;58888;-68
2022/07/13 01:12:06;;;;;;;4.90;3.40;;;;;;;8.60;96.73;97652.98;110147;1247;58913;-68
2022/07/13 01:14:38;;;;;;;6.00;4.30;;;;;;;8.61;96.58;97650.65;110207;1247;70746;-68
2022/07/13 01:17:09;;;;;;;5.80;3.80;;;;;;;8.62;97.28;97647.77;110138;1247;67815;-67
2022/07/13 01:19:40;;;;;;;4.70;4.10;;;;;;;8.60;96.42;97652.30;110181;1247;68621;-68
2022/07/13 01:22:18;;;;;;;5.00;4.10;;;;;;;8.58;96.22;97646.85;110327;1246;58948;-69
2022/07/13 01:24:50;;;;;;;4.70;3.40;;;;;;;8.55;96.15;97643.00;110059;1247;58877;-67
2022/07/13 01:27:21;;;;;;;5.00;4.10;;;;;;;8.54;95.96;97644.11;110402;1246;70749;-67
2022/07/13 01:29:52;;;;;;;5.00;4.20;;;;;;;8.53;96.15;97641.94;110227;1247;68517;-69
2022/07/13 01:32:22;;;;;;;4.60;3.80;;;;;;;8.51;95.96;97641.05;110180;1247;68562;-68
2022/07/13 01:34:53;;;;;;;4.90;3.60;;;;;;;8.48;95.61;97638.45;110314;1247;58905;-69
2022/07/13 01:37:25;;;;;;;4.60;4.10;;;;;;;8.47;96.00;97635.88;110483;1245;59104;-68
2022/07/13 01:39:55;;;;;;;4.60;3.40;;;;;;;8.46;96.77;97634.71;110440;1246;70060;-67
2022/07/13 01:42:27;;;;;;;5.30;3.90;;;;;;;8.46;97.04;97631.78;110538;1247;67767;-68
2022/07/13 01:44:59;;;;;;;3.80;3.40;;;;;;;8.46;96.61;97632.83;109974;1247;68465;-68
2022/07/13 01:47:29;;;;;;;5.00;3.60;;;;;;;8.45;95.50;97630.98;110267;1247;58899;-68
2022/07/13 01:49:59;;;;;;;;;;;;;;;8.46;96.29;97627.92;110194;1247;58861;-69
2022/07/13 01:52:33;;;;;;;6.30;4.70;;;;;;;8.45;96.21;97622.27;110349;1244;70747;-70
2022/07/13 01:55:07;;;;;;;8.40;6.40;;;;;;;8.44;95.78;97622.35;110259;1247;68573;-68
2022/07/13 01:57:39;;;;;;;10.30;6.80;;;;;;;8.43;95.81;97621.02;110411;1245;69383;-67
2022/07/13 02:00:13;;;;;;;10.50;5.40;;;;;;;8.45;97.33;97617.95;110257;1247;58938;-69
2022/07/13 02:02:47;;;;;;;7.40;5.30;;;;;;;8.45;97.22;97616.72;110184;1247;58957;-69
2022/07/13 02:05:25;;;;;;;5.90;3.90;;;;;;;8.45;96.99;97615.70;110352;1246;71189;-68
2022/07/13 02:07:55;;;;;;;9.70;6.20;;;;;;;8.44;95.30;97620.58;110223;1247;67963;-67
2022/07/13 02:10:37;;;;;;;7.00;5.00;;;;;;;8.44;95.19;97616.77;110333;1245;68595;-68
2022/07/13 02:13:12;;;;;;;9.00;6.60;;;;;;;8.47;95.70;97615.75;110305;1247;58941;-68
2022/07/13 02:15:43;;;;;;;7.40;4.90;;;;;;;8.49;97.07;97616.66;110199;1247;58881;-69
2022/07/13 02:18:14;;;;;;;7.50;5.60;;;;;;;8.50;96.66;97613.29;110054;1247;70005;-68
2022/07/13 02:20:48;;;;;;;6.50;5.20;;;;;;;8.51;96.55;97613.20;110158;1247;68044;-68
2022/07/13 02:23:18;;;;;;;6.90;5.20;;;;;;;8.52;96.53;97610.90;110321;1246;68979;-67
2022/07/13 02:25:47;;;;;;;7.80;4.60;;;;;;;8.52;96.28;97610.06;110261;1246;58900;-67
2022/07/13 02:28:18;;;;;;;8.60;5.00;;;;;;;8.52;96.04;97609.02;110203;1247;58867;-67
2022/07/13 02:30:48;;;;;;;;;;;;;;;8.53;95.89;97607.16;110377;1246;69787;-68
2022/07/13 02:33:18;;;;;;;7.40;5.80;;;;;;;8.54;95.82;97605.92;110268;1247;68436;-67
2022/07/13 02:35:47;;;;;;;8.00;5.50;;;;;;;8.56;96.14;97603.70;109965;1248;68538;-70
2022/07/13 02:38:17;;;;;;;6.10;5.30;;;;;;;8.59;96.77;97599.71;110180;1247;58929;-69
2022/07/13 02:40:47;;;;;;;4.40;3.60;;;;;;;8.61;96.57;97601.50;110190;1247;58883;-68
2022/07/13 02:43:18;;;;;;;5.50;4.00;;;;;;;8.64;96.04;97604.09;110218;1247;69938;-69
2022/07/13 02:45:47;;;;;;;6.00;3.90;;;;;;;8.67;96.13;97611.53;110222;1247;68701;-69
2022/07/13 02:48:18;;;;;;;4.10;3.70;;;;;;;8.70;96.21;97611.35;110165;1247;69399;-68
2022/07/13 02:50:48;;;;;;;5.20;4.70;;;;;;;8.75;96.67;97607.92;110450;1246;58900;-69
2022/07/13 02:53:18;;;;;;;5.20;3.90;;;;;;;8.80;96.56;97608.84;110020;1249;58923;-68
2022/07/13 02:55:48;;;;;;;5.80;4.50;;;;;;;8.85;96.50;97608.52;110389;1246;69674;-68
2022/07/13 02:58:19;;;;;;;5.40;4.50;;;;;;;8.89;94.82;97604.58;110270;1247;68398;-67
2022/07/13 03:00:52;;;;;;;8.30;6.70;;;;;;;8.91;93.68;97597.86;110229;1247;68640;-68
2022/07/13 03:03:21;;;;;;;7.50;5.60;;;;;;;8.92;94.16;97601.15;110296;1245;58876;-67
2022/07/13 03:05:52;;;;;;;6.00;4.70;;;;;;;8.91;92.17;97595.80;110443;1246;58943;-67
2022/07/13 03:08:21;;;;;;;5.20;4.60;;;;;;;8.91;91.34;97596.10;110226;1247;69990;-68
2022/07/13 03:10:51;;;;;;;7.10;5.30;;;;;;;8.94;93.78;97600.98;110261;1247;67622;-67
2022/07/13 03:13:21;;;;;;;5.00;4.00;;;;;;;8.97;95.13;97598.91;110389;1246;69394;-67
2022/07/13 03:15:50;;;;;;;4.90;3.90;;;;;;;9.02;95.63;97597.39;110173;1247;58928;-67
2022/07/13 03:18:20;;;;;;;5.20;4.60;;;;;;;9.06;95.41;97599.55;110214;1246;58803;-67
2022/07/13 03:20:50;;;;;;;6.10;5.30;;;;;;;9.12;94.85;97599.33;110331;1246;70541;-67
2022/07/13 03:23:20;;;;;;;6.00;5.30;;;;;;;9.17;96.15;97602.29;110180;1247;68568;-68
2022/07/13 03:25:49;;;;;;;5.90;4.40;;;;;;;9.21;96.06;97600.14;110200;1247;68588;-67
2022/07/13 03:28:19;;;;;;;6.00;4.90;;;;;;;9.26;96.13;97602.98;110383;1245;58876;-68
2022/07/13 03:30:49;;;;;;;6.60;5.00;;;;;;;9.30;96.32;97601.66;110390;1245;58898;-69
2022/07/13 03:33:19;;;;;;;4.20;3.70;;;;;;;9.34;96.31;97602.41;110238;1247;69782;-68
2022/07/13 03:35:49;;;;;;;5.90;4.40;;;;;;;9.40;96.08;97606.21;110251;1247;67798;-67
2022/07/13 03:38:19;;;;;;;4.60;3.90;;;;;;;9.47;96.39;97609.59;110369;1245;68501;-69
2022/07/13 03:40:48;;;;;;;;;;;;;;;9.55;96.44;97613.11;110150;1247;58916;-67
2022/07/13 03:43:21;;;;;;;6.40;4.30;;;;;;;9.61;96.69;97613.35;110352;1247;58935;-67
2022/07/13 03:45:50;;;;;;;5.00;4.10;;;;;;;9.70;97.17;97612.41;110125;1247;70703;-67
2022/07/13 03:48:20;;;;;;;4.80;4.20;;;;;;;9.79;97.04;97614.48;110059;1248;68174;-68
2022/07/13 03:50:50;;;;;;;3.90;3.50;;;;;;;9.87;96.67;97619.31;110190;1247;69433;-69
2022/07/13 03:53:20;;;;;;;;;;;;;;;9.96;96.48;97623.06;110259;1247;58912;-68
2022/07/13 03:55:49;;;;;;;3.50;3.20;;;;;;;10.05;96.68;97619.67;110217;1247;58967;-67
2022/07/13 03:58:19;;;;;;;3.50;2.80;;;;;;;10.12;96.27;97624.73;110251;1247;70556;-68
2022/07/13 04:00:49;;;;;;;3.50;3.10;;;;;;;10.23;95.95;97628.39;110158;1247;68512;-67
2022/07/13 04:03:19;;;;;;;3.00;2.70;;;;;;;10.33;95.86;97633.14;109859;1247;68247;-69
2022/07/13 04:05:49;;;;;;;;;;;;;;;10.43;95.44;97630.56;110267;1247;58826;-70
2022/07/13 04:08:18;;;;;;;5.80;5.10;;;;;;;10.53;95.61;97631.58;110538;1246;58828;-69
2022/07/13 04:10:47;;;;;;;5.30;4.50;;;;;;;10.62;95.08;97635.96;110389;1245;70650;-67
2022/07/13 04:13:17;;;;;;;4.00;3.60;;;;;;;10.72;94.50;97641.06;110127;1247;67934;-68
2022/07/13 04:15:46;;;;;;;5.40;4.70;;;;;;;10.80;93.75;97640.86;110398;1246;68949;-68
2022/07/13 04:18:16;;;;;;;5.00;4.40;;;;;;;10.81;92.72;97640.77;110398;1246;58944;-69
2022/07/13 04:20:47;;;;;;;4.50;4.00;;;;;;;10.87;92.26;97632.03;110373;1245;58805;-67
2022/07/13 04:23:18;;;;;;;4.40;3.60;;;;;;;10.95;92.29;97629.88;110393;1245;69966;-68
2022/07/13 04:25:49;;;;;;;3.50;3.00;;;;;;;11.07;92.08;97633.73;110033;1247;68497;-68
2022/07/13 04:28:18;;;;;;;5.60;5.10;;;;;;;11.21;92.09;97634.66;110202;1247;69396;-67
2022/07/13 04:30:47;;;;;;;5.90;4.70;;;;;;;11.33;91.41;97629.56;110160;1247;58890;-67
2022/07/13 04:33:17;;;;;;;5.70;3.60;;;;;;;11.46;90.17;97623.38;110279;1247;58961;-68
2022/07/13 04:35:46;;;;;;;4.40;4.00;;;;;;;11.56;89.63;97616.57;110229;1247;70628;-67
2022/07/13 04:38:16;;;;;;;4.20;3.50;;;;;;;11.59;89.00;97607.11;110174;1247;67704;-67
2022/07/13 04:40:46;;;;;;;4.30;3.60;;;;;;;11.73;89.15;97598.18;110397;1247;68625;-68
2022/07/13 04:43:15;;;;;;;5.20;4.00;;;;;;;11.91;88.67;97592.67;110205;1247;58951;-67
2022/07/13 04:45:45;;;;;;;4.50;4.00;;;;;;;12.09;88.28;97594.42;110040;1247;58967;-67
2022/07/13 04:48:15;;;;;;;4.30;3.90;;;;;;;12.18;86.04;97597.46;110338;1245;70437;-67
2022/07/13 04:50:44;;;;;;;3.40;3.00;;;;;;;12.26;86.01;97587.76;110204;1247;68554;-66
2022/07/13 04:53:13;;;;;;;4.00;3.60;;;;;;;12.33;84.97;97589.35;110127;1247;68609;-68
2022/07/13 04:55:43;;;;;;;4.00;3.20;;;;;;;12.41;85.13;97596.73;110090;1247;58819;-67
2022/07/13 04:58:12;;;;;;;10.40;7.70;;;;;;;12.47;85.08;97593.26;110408;1247;58862;-69
2022/07/13 05:00:41;;;;;;;13.10;7.30;;;;;;;12.53;84.78;97594.40;110195;1247;70770;-69
2022/07/13 05:03:31;;;;;;;12.40;8.20;;;;;;;12.59;83.94;97595.33;110401;1247;68620;-68
2022/07/13 05:06:01;;;;;;;8.90;6.20;;;;;;;12.61;83.32;97597.15;110383;1245;68623;-67
2022/07/13 05:08:30;;;;;;;7.70;4.90;;;;;;;12.63;83.47;97598.67;110226;1247;58942;-67
2022/07/13 05:11:02;;;;;;;6.30;4.40;;;;;;;12.66;83.23;97599.16;110206;1247;58858;-65
2022/07/13 05:13:34;;;;;;;5.60;3.80;;;;;;;12.65;82.85;97600.12;110254;1247;69958;-67
2022/07/13 05:16:06;;;;;;;4.20;3.60;;;;;;;12.72;83.49;97601.48;110224;1247;67877;-67
2022/07/13 05:18:35;;;;;;;3.70;3.10;;;;;;;12.76;83.02;97599.80;110153;1247;68810;-66
2022/07/13 05:21:10;;;;;;;5.20;3.30;;;;;;;12.87;82.76;97602.79;110195;1247;58936;-66
2022/07/13 05:23:42;;;;;;;5.90;4.00;;;;;;;12.97;82.68;97599.35;110243;1247;58878;-68
2022/07/13 05:26:13;;;;;;;6.00;3.90;;;;;;;13.02;81.52;97599.27;110227;1247;70552;-67
2022/07/13 05:28:43;;;;;;;6.10;4.00;;;;;;;13.11;81.33;97596.51;110197;1247;67849;-67
2022/07/13 05:31:14;;;;;;;4.50;3.60;;;;;;;13.22;80.69;97594.00;110313;1247;69456;-67
2022/07/13 05:33:43;;;;;;;4.30;3.30;;;;;;;13.35;81.27;97592.34;110163;1247;59006;-67
2022/07/13 05:36:19;;;;;;;5.50;3.90;;;;;;;13.45;80.69;97596.52;110330;1247;58882;-67
2022/07/13 05:38:49;;;;;;;7.50;4.10;;;;;;;13.46;80.12;97595.91;110224;1247;70065;-67
2022/07/13 05:41:17;;;;;;;5.30;4.00;;;;;;;13.54;80.60;97600.56;110098;1247;67798;-67
2022/07/13 05:43:47;;;;;;;3.90;3.50;;;;;;;13.43;80.34;97599.70;110221;1246;68709;-67
2022/07/13 05:46:17;;;;;;;5.70;2.90;;;;;;;13.43;81.21;97605.27;110341;1246;58868;-68
2022/07/13 05:48:46;;;;;;;3.70;3.00;;;;;;;13.51;80.75;97610.79;110229;1247;58927;-68
2022/07/13 05:51:16;;;;;;;3.40;3.00;;;;;;;13.68;80.98;97606.41;110372;1247;69820;-66
2022/07/13 05:54:03;;;;;;;3.60;3.30;;;;;;;13.85;80.17;97608.33;110228;1247;68768;-67
2022/07/13 05:56:53;;;;;;;3.90;3.00;;;;;;;14.08;79.20;97603.07;110315;1245;69392;-67
2022/07/13 05:59:22;;;;;;;4.40;3.20;;;;;;;14.17;79.05;97597.09;110308;1246;58880;-67
2022/07/13 06:01:51;;;;;;;4.00;3.60;;;;;;;14.21;78.01;97591.27;110314;1247;58948;-67
2022/07/13 06:04:20;;;;;;;3.30;3.00;;;;;;;14.23;77.65;97595.65;110383;1245;70651;-67
2022/07/13 06:06:49;;;;;;;4.10;3.40;;;;;;;14.28;77.16;97588.95;110202;1246;68583;-66
2022/07/13 06:09:18;;;;;;;3.60;3.30;;;;;;;14.37;77.09;97589.92;110406;1244;69516;-67
2022/07/13 06:11:47;;;;;;;3.50;3.20;;;;;;;14.47;76.76;97590.80;110427;1244;58882;-66
2022/07/13 06:14:17;;;;;;;3.70;3.30;;;;;;;14.50;75.59;97587.05;110476;1244;58957;-67
2022/07/13 06:16:46;;;;;;;4.10;3.50;;;;;;;14.50;74.75;97585.49;110386;1245;70032;-65
2022/07/13 06:19:15;;;;;;;3.10;2.80;;;;;;;14.47;74.50;97586.73;110299;1244;68609;-65
2022/07/13 06:21:44;;;;;;;5.50;3.20;;;;;;;14.48;74.41;97586.17;110439;1244;68410;-66
2022/07/13 06:24:14;;;;;;;3.50;3.00;;;;;;;14.47;74.25;97580.10;110254;1244;58927;-66
2022/07/13 06:26:43;;;;;;;3.80;3.20;;;;;;;14.56;74.07;97579.77;110399;1245;58890;-68
2022/07/13 06:29:12;;;;;;;3.20;2.90;;;;;;;14.67;72.89;97574.06;110205;1244;71027;-70
2022/07/13 06:31:41;;;;;;;3.10;2.30;;;;;;;14.77;72.30;97567.02;110356;1246;68597;-68
2022/07/13 06:34:13;;;;;;;3.70;3.00;;;;;;;14.97;72.07;97569.80;110336;1246;68658;-69
2022/07/13 06:36:50;;;;;;;2.50;2.10;;;;;;;15.21;71.22;97578.95;110231;1245;58885;-70
2022/07/13 06:39:22;;;;;;;2.80;2.50;;;;;;;15.39;69.67;97591.40;110405;1244;58943;-66
2022/07/13 06:41:53;;;;;;;4.30;3.20;;;;;;;15.34;69.27;97592.53;110239;1247;70900;-66
2022/07/13 06:44:24;;;;;;;2.80;2.50;;;;;;;15.44;68.85;97594.81;110336;1244;68521;-67
2022/07/13 06:46:59;;;;;;;3.40;2.60;;;;;;;15.63;68.57;97597.67;110317;1247;68671;-69
2022/07/13 06:49:30;;;;;;;3.60;2.40;;;;;;;15.88;68.40;97602.41;110352;1247;58957;-66
2022/07/13 06:52:01;;;;;;;3.20;2.80;;;;;;;16.12;68.48;97600.75;110251;1247;58890;-67
2022/07/13 06:54:32;;;;;;;2.90;2.40;;;;;;;16.08;66.49;97602.53;110337;1244;70708;-68
2022/07/13 06:57:02;;;;;;;2.90;2.20;;;;;;;15.59;66.56;97604.15;110531;1243;68441;-67
2022/07/13 06:59:36;;;;;;;3.30;2.50;;;;;;;15.89;67.25;97608.39;110328;1244;68501;-66
2022/07/13 07:02:06;;;;;;;3.70;2.30;;;;;;;16.05;67.09;97607.91;110184;1247;58972;-67
2022/07/13 07:04:36;;;;;;;3.00;2.40;;;;;;;16.04;66.80;97607.27;110480;1244;58879;-67
2022/07/13 07:07:13;;;;;;;4.10;2.40;;;;;;;16.22;67.52;97611.61;110373;1245;70549;-68
2022/07/13 07:09:44;;;;;;;2.70;1.70;;;;;;;16.28;66.51;97613.73;110312;1245;68600;-66
2022/07/13 07:12:17;;;;;;;3.00;2.10;;;;;;;16.22;66.27;97608.81;110312;1245;68766;-67
2022/07/13 07:14:46;;;;;;;3.20;2.80;;;;;;;16.32;66.81;97606.52;110409;1245;58942;-68
2022/07/13 07:17:17;;;;;;;2.80;2.40;;;;;;;16.35;66.98;97604.45;110346;1247;58954;-67
2022/07/13 07:19:48;;;;;;;2.80;2.50;;;;;;;16.32;66.80;97605.40;110447;1244;69927;-69
2022/07/13 07:22:18;;;;;;;4.20;3.30;;;;;;;16.31;66.98;97604.45;110253;1246;68605;-68
2022/07/13 07:24:47;;;;;;;4.00;3.10;;;;;;;16.34;67.26;97606.52;110201;1245;70033;-67
2022/07/13 07:27:25;;;;;;;3.80;2.60;;;;;;;16.36;67.25;97613.31;110299;1245;58920;-68
2022/07/13 07:29:58;;;;;;;4.60;4.10;;;;;;;16.35;66.58;97610.26;110456;1244;58815;-67
2022/07/13 07:32:29;;;;;;;3.70;3.30;;;;;;;16.37;66.83;97613.27;110254;1247;70664;-66
2022/07/13 07:35:00;;;;;;;3.70;3.10;;;;;;;16.39;66.76;97609.52;110247;1247;67797;-69
2022/07/13 07:37:30;;;;;;;4.20;3.40;;;;;;;16.18;67.06;97602.52;110167;1247;68922;-68
2022/07/13 07:40:00;;;;;;;5.10;3.40;;;;;;;16.15;66.65;97591.20;109806;1245;653580;-69
2022/07/13 07:42:31;;;;;;;5.80;4.30;;;;;;;15.98;67.17;97584.77;110304;1244;58890;-67
2022/07/13 07:45:05;;;;;;;6.50;3.60;;;;;;;15.97;67.64;97588.48;110269;1246;70023;-71
2022/07/13 07:47:36;;;;;;;6.30;5.60;;;;;;;15.94;67.80;97591.20;110291;1245;68501;-69
2022/07/13 07:50:07;;;;;;;5.10;4.70;;;;;;;15.97;68.11;97583.66;110468;1244;68651;-71
2022/07/13 07:52:38;;;;;;;4.10;3.70;;;;;;;16.04;68.27;97592.88;110429;1244;58950;-68
2022/07/13 07:55:25;;;;;;;3.70;3.40;;;;;;;16.18;68.44;97593.14;110359;1245;58898;-67
2022/07/13 07:57:56;;;;;;;4.60;3.20;;;;;;;16.39;68.17;97593.48;110462;1244;69767;-66
2022/07/13 08:00:30;;;;;;;2.90;2.50;;;;;;;16.53;66.83;97590.25;110464;1244;67660;-69
2022/07/13 08:03:03;;;;;;;4.30;3.90;;;;;;;16.59;66.93;97591.81;110411;1244;69537;-68
2022/07/13 08:05:33;;;;;;;4.10;3.30;;;;;;;16.80;66.35;97585.77;110423;1245;58944;-68
2022/07/13 08:08:05;;;;;;;4.20;3.00;;;;;;;16.99;65.32;97589.80;110333;1245;58845;-67
2022/07/13 08:10:35;;;;;;;4.00;3.20;;;;;;;17.10;64.63;97593.86;110216;1245;70057;-69
2022/07/13 08:13:06;;;;;;;3.50;2.90;;;;;;;17.32;64.17;97586.17;110499;1244;68605;-67
2022/07/13 08:15:37;;;;;;;3.40;2.30;;;;;;;17.63;63.03;97579.30;110324;1247;69408;-68
2022/07/13 08:18:09;;;;;;;3.90;2.70;;;;;;;17.85;61.84;97575.36;110552;1244;58939;-68
2022/07/13 08:21:01;;;;;;;2.90;2.00;;;;;;;18.09;61.64;97579.52;110463;1244;58892;-67
2022/07/13 08:23:51;;;;;;;4.10;2.60;;;;;;;18.40;60.86;97584.30;110323;1247;70677;-68
2022/07/13 08:26:25;;;;;;;3.00;2.60;;;;;;;18.71;58.90;97593.08;110307;1247;67724;-67
2022/07/13 08:28:58;;;;;;;2.60;2.10;;;;;;;19.13;57.65;97589.94;110463;1244;69291;-67
2022/07/13 08:31:29;;;;;;;3.30;2.10;;;;;;;19.59;57.64;97596.81;110496;1244;58951;-67
2022/07/13 08:39:40;;;;;;;3.10;2.30;;;;;;;20.54;52.42;97589.47;110218;1247;67756;-67
2022/07/13 08:42:13;;;;;;;3.40;2.20;;;;;;;20.55;51.83;97590.25;110281;1247;68651;-68
2022/07/13 08:44:42;;;;;;;2.40;2.20;;;;;;;20.66;52.31;97591.55;110427;1244;58860;-69
2022/07/13 08:47:11;;;;;;;3.00;2.00;;;;;;;20.79;50.67;97584.09;110525;1244;58875;-69
2022/07/13 08:49:42;;;;;;;2.60;2.40;;;;;;;20.79;50.46;97581.00;110336;1245;71128;-69
2022/07/13 08:52:13;;;;;;;3.20;2.10;;;;;;;20.57;49.50;97579.38;110563;1244;67858;-67
2022/07/13 08:54:44;;;;;;;2.40;1.80;;;;;;;20.66;49.86;97580.38;110373;1245;68469;-66
2022/07/13 08:57:17;;;;;;;4.00;3.20;;;;;;;20.66;50.39;97579.13;110420;1243;58957;-69
2022/07/13 08:59:46;;;;;;;4.00;2.30;;;;;;;20.50;50.83;97577.40;110269;1245;58946;-67
2022/07/13 09:02:17;;;;;;;2.80;2.00;;;;;;;20.45;50.71;97574.79;110260;1247;69982;-68
2022/07/13 09:04:50;;;;;;;2.70;2.10;;;;;;;20.27;50.52;97574.59;110224;1245;68092;-66
2022/07/13 09:07:21;;;;;;;1.90;1.50;;;;;;;20.09;49.98;97572.47;110478;1244;69390;-69
2022/07/13 09:09:56;;;;;;;2.20;1.50;;;;;;;20.18;50.59;97573.09;110024;1247;58899;-67
2022/07/13 09:12:37;;;;;;;3.20;2.30;;;;;;;20.45;50.30;97571.35;110491;1244;58862;-67
2022/07/13 09:15:09;;;;;;;3.60;2.70;;;;;;;20.67;49.65;97569.13;110526;1244;70566;-67
2022/07/13 09:17:44;;;;;;;2.50;2.10;;;;;;;20.76;49.26;97565.98;110335;1247;68232;-67
2022/07/13 09:20:14;;;;;;;4.10;2.90;;;;;;;21.03;48.58;97567.02;110296;1244;69207;-67
2022/07/13 09:22:49;;;;;;;4.90;2.90;;;;;;;21.13;47.23;97568.70;110310;1247;58939;-67
2022/07/13 09:25:29;;;;;;;3.90;2.70;;;;;;;20.87;47.79;97569.39;110468;1244;58870;-67
2022/07/13 09:28:18;;;;;;;3.40;2.20;;;;;;;20.93;48.21;97565.34;110302;1244;69979;-69
2022/07/13 09:30:49;;;;;;;2.20;1.60;;;;;;;21.09;49.07;97570.72;110425;1244;67741;-67
2022/07/13 09:33:33;;;;;;;2.80;2.10;;;;;;;21.26;47.27;97565.30;110284;1245;68744;-67
2022/07/13 09:36:18;;;;;;;2.50;1.60;;;;;;;20.94;47.88;97568.16;110501;1244;58963;-67
2022/07/13 09:38:52;;;;;;;2.20;1.90;;;;;;;21.05;48.07;97565.31;110265;1244;58858;-67
2022/07/13 09:41:25;;;;;;;2.60;2.20;;;;;;;21.21;47.36;97565.34;110476;1244;70285;-68
2022/07/13 09:46:50;;;;;;;3.10;1.60;;;;;;;21.46;46.86;97564.05;110319;1245;69423;-66
2022/07/13 09:49:38;;;;;;;2.50;1.40;;;;;;;21.85;43.21;97561.11;110448;1244;58893;-66
2022/07/13 09:52:11;;;;;;;1.40;1.20;;;;;;;22.81;44.49;97559.19;110248;1245;59062;-66
2022/07/13 09:54:50;;;;;;;1.60;1.30;;;;;;;23.43;41.34;97555.85;110311;1246;70611;-67
2022/07/13 09:57:23;;;;;;;2.80;1.30;;;;;;;23.94;39.89;97558.94;110315;1244;68586;-68
2022/07/13 09:59:55;;;;;;;1.20;1.10;;;;;;;24.52;37.81;97561.21;110133;1247;69831;-68
2022/07/13 10:02:28;;;;;;;1.60;1.00;;;;;;;24.90;37.95;97551.97;110370;1247;60044;-67
2022/07/13 10:04:59;;;;;;;2.10;1.10;;;;;;;24.68;36.41;97551.42;110523;1244;58938;-68
2022/07/13 10:07:31;;;;;;;1.10;1.00;;;;;;;24.72;36.23;97546.40;110315;1244;70577;-69
2022/07/13 10:10:07;;;;;;;1.10;1.00;;;;;;;24.16;36.32;97545.55;110291;1247;68516;-67
2022/07/13 10:12:38;;;;;;;1.90;0.90;;;;;;;24.64;37.24;97544.34;110162;1247;69815;-67
2022/07/13 10:15:12;;;;;;;1.00;0.90;;;;;;;25.19;36.70;97542.23;110542;1244;58925;-69
2022/07/13 10:17:49;;;;;;;1.10;1.00;;;;;;;25.21;36.32;97539.71;110074;1248;58838;-69
2022/07/13 10:20:25;;;;;;;1.50;1.00;;;;;;;25.16;36.98;97544.40;110334;1247;69870;-67
2022/07/13 10:23:01;;;;;;;1.10;1.00;;;;;;;25.20;36.56;97546.64;110319;1247;68373;-69
2022/07/13 10:25:44;;;;;;;1.30;1.00;;;;;;;25.11;36.95;97545.31;110278;1247;69309;-67
2022/07/13 10:28:19;;;;;;;1.30;1.00;;;;;;;25.23;37.24;97548.70;110318;1244;58937;-69
2022/07/13 10:30:50;;;;;;;1.10;1.00;;;;;;;25.30;36.72;97543.17;110305;1247;59115;-67
2022/07/13 10:33:24;;;;;;;1.90;1.20;;;;;;;25.31;36.04;97533.38;110313;1245;70695;-66
2022/07/13 10:35:57;;;;;;;1.50;1.10;;;;;;;25.24;36.32;97536.24;110326;1247;67625;-70
2022/07/13 10:38:29;;;;;;;1.30;1.20;;;;;;;25.18;36.52;97533.14;110287;1247;68725;-69
2022/07/13 10:41:29;;;;;;;1.40;1.10;;;;;;;24.96;36.05;97526.56;110196;1247;58875;-70
2022/07/13 10:44:31;;;;;;;1.30;1.20;;;;;;;24.99;37.08;97518.40;110101;1247;58928;-69
2022/07/13 10:47:00;;;;;;;2.00;1.30;;;;;;;24.12;36.73;97513.66;110239;1248;70765;-71
2022/07/13 10:49:35;;;;;;;1.50;1.20;;;;;;;23.65;37.33;97518.61;110249;1244;68703;-69
2022/07/13 10:52:22;;;;;;;1.70;1.20;;;;;;;24.27;37.76;97512.42;110404;1245;69334;-67
2022/07/13 10:55:13;;;;;;;2.10;1.10;;;;;;;25.04;36.72;97519.98;110211;1247;58943;-68
2022/07/13 10:57:43;;;;;;;2.30;1.10;;;;;;;24.46;36.02;97507.69;110408;1244;58827;-69
2022/07/13 11:00:23;;;;;;;2.60;1.10;;;;;;;24.54;36.84;97510.45;110414;1245;71440;-68
2022/07/13 11:02:54;;;;;;;;;;;;;;;24.78;36.25;97514.04;110209;1247;68826;-69
2022/07/13 11:05:30;;;;;;;;;;;;;;;24.63;35.70;97507.56;110258;1247;69543;-69
2022/07/13 11:08:10;;;;;;;;;;;;;;;24.46;36.20;97508.06;110497;1244;58954;-70
2022/07/13 11:10:39;;;;;;;;;;;;;;;24.89;35.30;97501.77;110238;1247;58939;-67
2022/07/13 11:13:10;;;;;;;;;;;;;;;25.44;34.96;97505.66;110242;1247;70656;-69
2022/07/13 11:15:42;;;;;;;;;;;;;;;25.89;32.82;97500.19;110265;1247;68422;-68
2022/07/13 11:18:30;;;;;;;;;;;;;;;25.37;31.75;97500.73;110288;1244;68685;-67
2022/07/13 11:21:01;;;;;;;;;;;;;;;25.44;32.58;97506.73;110422;1244;58919;-69
2022/07/13 11:26:44;;;;;;;;;;;;;;;24.37;33.13;97508.81;110244;1247;70829;-67
2022/07/13 11:29:18;;;;;;;;;;;;;;;24.46;33.37;97511.27;110469;1244;68146;-67
2022/07/13 11:31:53;;;;;;;;;;;;;;;24.59;33.89;97511.15;110434;1244;69233;-69
2022/07/13 11:34:23;;;;;;;;;;;;;;;24.63;34.26;97510.91;110302;1247;59308;-67
2022/07/13 11:36:52;;;;;;;;;;;;;;;24.79;33.76;97518.06;110440;1244;58888;-66
2022/07/13 11:39:23;;;;;;;;;;;;;;;24.89;34.33;97516.01;110242;1247;69779;-69
2022/07/13 11:41:53;;;;;;;;;;;;;;;24.90;33.32;97510.88;110379;1247;68148;-68
2022/07/13 11:44:27;;;;;;;;;;;;;;;24.91;32.68;97513.09;110264;1247;68583;-69
2022/07/13 11:47:01;;;;;;;;;;;;;;;24.80;31.99;97512.20;110512;1244;58828;-69
2022/07/13 11:49:43;;;;;;;;;;;;;;;24.80;32.54;97516.33;110263;1244;58964;-68
2022/07/13 11:52:21;;;;;;;;;;;;;;;24.79;32.60;97517.08;110275;1245;69911;-68
2022/07/13 11:54:57;;;;;;;;;;;;;;;24.88;32.40;97515.10;110475;1244;68697;-68
2022/07/13 11:57:26;;;;;;;;;;;;;;;25.07;33.46;97515.80;110189;1247;69540;-69
2022/07/13 12:00:02;;;;;;;;;;;;;;;25.08;32.23;97514.88;110368;1244;59815;-70
2022/07/13 12:02:39;;;;;;;;;;;;;;;25.03;32.03;97512.04;110307;1244;58888;-70
2022/07/13 12:05:08;;;;;;;;;;;;;;;24.99;32.40;97509.23;110501;1244;69990;-68
2022/07/13 12:07:44;;;;;;;;;;;;;;;25.39;32.43;97505.90;110420;1244;69093;-70
2022/07/13 12:10:13;;;;;;;;;;;;;;;25.11;32.22;97494.86;110529;1244;69422;-71
2022/07/13 12:12:42;;;;;;;;;;;;;;;25.36;32.64;97495.48;110356;1245;58860;-69